sensor_id;sensor_type;location;lat;lon;timestamp;P1;durP1;ratioP1;P2;durP2;ratioP2
14078;SDS011;7115;50.150;8.568;2023-08-17T00:00:56;4.83;;;2.23;;
14078;SDS011;7115;50.150;8.568;2023-08-17T00:03:25;2.20;;;1.93;;
14078;SDS011;7115;50.150;8.568;2023-08-17T00:05:51;2.90;;;2.13;;
14078;SDS011;7115;50.150;8.568;2023-08-17T00:08:18;4.90;;;2.93;;
14078;SDS011;7115;50.150;8.568;2023-08-17T00:10:45;2.50;;;2.30;;
14078;SDS011;7115;50.150;8.568;2023-08-17T00:13:14;4.27;;;2.30;;
14078;SDS011;7115;50.150;8.568;2023-08-17T00:15:40;5.07;;;2.70;;
14078;SDS011;7115;50.150;8.568;2023-08-17T00:18:07;4.63;;;3.27;;
14078;SDS011;7115;50.150;8.568;2023-08-17T00:20:35;4.03;;;2.20;;
14078;SDS011;7115;50.150;8.568;2023-08-17T00:23:02;6.00;;;2.67;;
14078;SDS011;7115;50.150;8.568;2023-08-17T00:25:30;4.57;;;2.80;;
14078;SDS011;7115;50.150;8.568;2023-08-17T00:27:57;8.37;;;3.80;;
14078;SDS011;7115;50.150;8.568;2023-08-17T00:30:23;4.67;;;3.30;;
14078;SDS011;7115;50.150;8.568;2023-08-17T00:32:50;5.73;;;3.10;;
14078;SDS011;7115;50.150;8.568;2023-08-17T00:35:17;4.67;;;3.53;;
14078;SDS011;7115;50.150;8.568;2023-08-17T00:37:45;6.07;;;3.43;;
14078;SDS011;7115;50.150;8.568;2023-08-17T00:40:12;5.40;;;3.53;;
14078;SDS011;7115;50.150;8.568;2023-08-17T00:42:39;3.67;;;3.00;;
14078;SDS011;7115;50.150;8.568;2023-08-17T00:45:06;4.90;;;3.60;;
14078;SDS011;7115;50.150;8.568;2023-08-17T00:47:33;3.97;;;2.83;;
14078;SDS011;7115;50.150;8.568;2023-08-17T00:50:00;8.37;;;3.53;;
14078;SDS011;7115;50.150;8.568;2023-08-17T00:52:28;6.23;;;3.47;;
14078;SDS011;7115;50.150;8.568;2023-08-17T00:54:58;3.87;;;3.00;;
14078;SDS011;7115;50.150;8.568;2023-08-17T00:57:26;6.23;;;3.23;;
14078;SDS011;7115;50.150;8.568;2023-08-17T00:59:53;3.27;;;2.67;;
14078;SDS011;7115;50.150;8.568;2023-08-17T01:02:30;4.67;;;2.67;;
14078;SDS011;7115;50.150;8.568;2023-08-17T01:04:57;3.40;;;2.70;;
14078;SDS011;7115;50.150;8.568;2023-08-17T01:07:25;3.07;;;2.53;;
14078;SDS011;7115;50.150;8.568;2023-08-17T01:09:52;3.97;;;2.80;;
14078;SDS011;7115;50.150;8.568;2023-08-17T01:12:22;4.90;;;2.90;;
14078;SDS011;7115;50.150;8.568;2023-08-17T01:14:56;4.60;;;2.77;;
14078;SDS011;7115;50.150;8.568;2023-08-17T01:17:29;4.37;;;2.97;;
14078;SDS011;7115;50.150;8.568;2023-08-17T01:19:59;3.57;;;3.07;;
14078;SDS011;7115;50.150;8.568;2023-08-17T01:22:30;6.20;;;3.20;;
14078;SDS011;7115;50.150;8.568;2023-08-17T01:25:00;5.23;;;3.13;;
14078;SDS011;7115;50.150;8.568;2023-08-17T01:27:33;5.13;;;3.43;;
14078;SDS011;7115;50.150;8.568;2023-08-17T01:30:03;7.73;;;3.10;;
14078;SDS011;7115;50.150;8.568;2023-08-17T01:32:34;4.63;;;3.57;;
14078;SDS011;7115;50.150;8.568;2023-08-17T01:35:07;4.40;;;3.87;;
14078;SDS011;7115;50.150;8.568;2023-08-17T01:37:41;4.10;;;3.60;;
14078;SDS011;7115;50.150;8.568;2023-08-17T01:40:11;4.97;;;3.67;;
14078;SDS011;7115;50.150;8.568;2023-08-17T01:42:40;4.93;;;3.40;;
14078;SDS011;7115;50.150;8.568;2023-08-17T01:45:09;7.80;;;3.90;;
14078;SDS011;7115;50.150;8.568;2023-08-17T01:47:37;6.50;;;3.50;;
14078;SDS011;7115;50.150;8.568;2023-08-17T01:50:04;6.80;;;4.00;;
14078;SDS011;7115;50.150;8.568;2023-08-17T01:52:31;5.57;;;4.23;;
14078;SDS011;7115;50.150;8.568;2023-08-17T01:54:58;6.30;;;3.63;;
14078;SDS011;7115;50.150;8.568;2023-08-17T01:57:26;5.03;;;4.00;;
14078;SDS011;7115;50.150;8.568;2023-08-17T01:59:53;7.53;;;4.70;;
14078;SDS011;7115;50.150;8.568;2023-08-17T02:02:20;5.20;;;4.03;;
14078;SDS011;7115;50.150;8.568;2023-08-17T02:04:47;5.87;;;3.73;;
14078;SDS011;7115;50.150;8.568;2023-08-17T02:07:14;5.10;;;3.90;;
14078;SDS011;7115;50.150;8.568;2023-08-17T02:09:41;8.70;;;4.77;;
14078;SDS011;7115;50.150;8.568;2023-08-17T02:12:08;7.27;;;4.63;;
14078;SDS011;7115;50.150;8.568;2023-08-17T02:14:36;8.67;;;4.63;;
14078;SDS011;7115;50.150;8.568;2023-08-17T02:17:03;6.47;;;3.73;;
14078;SDS011;7115;50.150;8.568;2023-08-17T02:19:31;6.13;;;3.07;;
14078;SDS011;7115;50.150;8.568;2023-08-17T02:21:59;5.47;;;3.10;;
14078;SDS011;7115;50.150;8.568;2023-08-17T02:24:26;4.67;;;2.60;;
14078;SDS011;7115;50.150;8.568;2023-08-17T02:26:52;3.50;;;2.47;;
14078;SDS011;7115;50.150;8.568;2023-08-17T02:29:19;2.63;;;2.03;;
14078;SDS011;7115;50.150;8.568;2023-08-17T02:31:48;3.40;;;2.50;;
14078;SDS011;7115;50.150;8.568;2023-08-17T02:34:14;4.20;;;1.87;;
14078;SDS011;7115;50.150;8.568;2023-08-17T02:36:41;2.00;;;1.80;;
14078;SDS011;7115;50.150;8.568;2023-08-17T02:39:08;3.97;;;1.87;;
14078;SDS011;7115;50.150;8.568;2023-08-17T02:41:35;3.00;;;1.87;;
14078;SDS011;7115;50.150;8.568;2023-08-17T02:44:02;2.77;;;1.77;;
14078;SDS011;7115;50.150;8.568;2023-08-17T02:46:29;2.43;;;1.93;;
14078;SDS011;7115;50.150;8.568;2023-08-17T02:48:58;3.33;;;2.03;;
14078;SDS011;7115;50.150;8.568;2023-08-17T02:51:25;2.73;;;2.00;;
14078;SDS011;7115;50.150;8.568;2023-08-17T02:53:51;2.97;;;2.27;;
14078;SDS011;7115;50.150;8.568;2023-08-17T02:56:18;3.47;;;2.30;;
14078;SDS011;7115;50.150;8.568;2023-08-17T02:58:45;4.57;;;2.47;;
14078;SDS011;7115;50.150;8.568;2023-08-17T03:01:12;5.47;;;2.37;;
14078;SDS011;7115;50.150;8.568;2023-08-17T03:03:39;3.07;;;2.10;;
14078;SDS011;7115;50.150;8.568;2023-08-17T03:06:07;6.67;;;2.30;;
14078;SDS011;7115;50.150;8.568;2023-08-17T03:08:34;2.97;;;2.30;;
14078;SDS011;7115;50.150;8.568;2023-08-17T03:11:01;6.00;;;3.00;;
14078;SDS011;7115;50.150;8.568;2023-08-17T03:13:27;2.80;;;2.50;;
14078;SDS011;7115;50.150;8.568;2023-08-17T03:15:54;2.97;;;2.37;;
14078;SDS011;7115;50.150;8.568;2023-08-17T03:18:21;2.30;;;1.93;;
14078;SDS011;7115;50.150;8.568;2023-08-17T03:20:48;4.47;;;2.40;;
14078;SDS011;7115;50.150;8.568;2023-08-17T03:23:16;4.30;;;1.80;;
14078;SDS011;7115;50.150;8.568;2023-08-17T03:25:43;3.40;;;1.90;;
14078;SDS011;7115;50.150;8.568;2023-08-17T03:28:11;3.30;;;1.83;;
14078;SDS011;7115;50.150;8.568;2023-08-17T03:30:38;3.13;;;1.70;;
14078;SDS011;7115;50.150;8.568;2023-08-17T03:33:05;3.03;;;1.60;;
14078;SDS011;7115;50.150;8.568;2023-08-17T03:35:32;2.77;;;1.73;;
14078;SDS011;7115;50.150;8.568;2023-08-17T03:37:59;4.63;;;1.87;;
14078;SDS011;7115;50.150;8.568;2023-08-17T03:40:27;2.10;;;1.70;;
14078;SDS011;7115;50.150;8.568;2023-08-17T03:42:54;2.33;;;1.87;;
14078;SDS011;7115;50.150;8.568;2023-08-17T03:45:20;3.87;;;2.10;;
14078;SDS011;7115;50.150;8.568;2023-08-17T03:47:47;5.20;;;2.30;;
14078;SDS011;7115;50.150;8.568;2023-08-17T03:50:14;2.73;;;1.77;;
14078;SDS011;7115;50.150;8.568;2023-08-17T03:52:41;3.13;;;1.70;;
14078;SDS011;7115;50.150;8.568;2023-08-17T03:55:09;1.93;;;1.80;;
14078;SDS011;7115;50.150;8.568;2023-08-17T03:57:37;4.17;;;1.50;;
14078;SDS011;7115;50.150;8.568;2023-08-17T04:00:05;6.90;;;2.00;;
14078;SDS011;7115;50.150;8.568;2023-08-17T04:02:33;2.03;;;1.70;;
14078;SDS011;7115;50.150;8.568;2023-08-17T04:05:00;4.43;;;1.63;;
14078;SDS011;7115;50.150;8.568;2023-08-17T04:07:27;4.30;;;1.83;;
14078;SDS011;7115;50.150;8.568;2023-08-17T04:09:54;4.87;;;2.30;;
14078;SDS011;7115;50.150;8.568;2023-08-17T04:12:21;4.30;;;2.17;;
14078;SDS011;7115;50.150;8.568;2023-08-17T04:14:49;3.13;;;1.77;;
14078;SDS011;7115;50.150;8.568;2023-08-17T04:17:16;3.53;;;1.97;;
14078;SDS011;7115;50.150;8.568;2023-08-17T04:19:43;2.17;;;1.77;;
14078;SDS011;7115;50.150;8.568;2023-08-17T04:22:10;4.33;;;1.80;;
14078;SDS011;7115;50.150;8.568;2023-08-17T04:24:37;2.07;;;1.83;;
14078;SDS011;7115;50.150;8.568;2023-08-17T04:27:04;3.33;;;1.80;;
14078;SDS011;7115;50.150;8.568;2023-08-17T04:29:31;5.13;;;1.90;;
14078;SDS011;7115;50.150;8.568;2023-08-17T04:31:59;2.80;;;1.63;;
14078;SDS011;7115;50.150;8.568;2023-08-17T04:34:26;4.93;;;1.50;;
14078;SDS011;7115;50.150;8.568;2023-08-17T04:36:53;2.10;;;1.50;;
14078;SDS011;7115;50.150;8.568;2023-08-17T04:39:20;2.17;;;1.70;;
14078;SDS011;7115;50.150;8.568;2023-08-17T04:41:47;1.77;;;1.57;;
14078;SDS011;7115;50.150;8.568;2023-08-17T04:44:14;3.80;;;2.00;;
14078;SDS011;7115;50.150;8.568;2023-08-17T04:46:41;4.87;;;2.07;;
14078;SDS011;7115;50.150;8.568;2023-08-17T04:49:09;4.93;;;1.80;;
14078;SDS011;7115;50.150;8.568;2023-08-17T04:51:36;3.67;;;1.70;;
14078;SDS011;7115;50.150;8.568;2023-08-17T04:54:03;3.53;;;1.60;;
14078;SDS011;7115;50.150;8.568;2023-08-17T04:56:30;5.43;;;1.60;;
14078;SDS011;7115;50.150;8.568;2023-08-17T04:58:57;3.80;;;1.60;;
14078;SDS011;7115;50.150;8.568;2023-08-17T05:01:23;6.23;;;3.40;;
14078;SDS011;7115;50.150;8.568;2023-08-17T05:03:51;2.50;;;1.40;;
14078;SDS011;7115;50.150;8.568;2023-08-17T05:06:19;3.97;;;1.67;;
14078;SDS011;7115;50.150;8.568;2023-08-17T05:08:46;5.70;;;1.83;;
14078;SDS011;7115;50.150;8.568;2023-08-17T05:11:13;5.40;;;1.40;;
14078;SDS011;7115;50.150;8.568;2023-08-17T05:13:39;4.23;;;1.40;;
14078;SDS011;7115;50.150;8.568;2023-08-17T05:16:06;7.60;;;2.00;;
14078;SDS011;7115;50.150;8.568;2023-08-17T05:18:33;5.27;;;1.53;;
14078;SDS011;7115;50.150;8.568;2023-08-17T05:21:00;4.50;;;1.70;;
14078;SDS011;7115;50.150;8.568;2023-08-17T05:23:28;5.03;;;1.50;;
14078;SDS011;7115;50.150;8.568;2023-08-17T05:25:55;4.73;;;1.27;;
14078;SDS011;7115;50.150;8.568;2023-08-17T05:28:22;2.77;;;1.87;;
14078;SDS011;7115;50.150;8.568;2023-08-17T05:30:49;1.90;;;1.53;;
14078;SDS011;7115;50.150;8.568;2023-08-17T05:33:16;2.77;;;1.80;;
14078;SDS011;7115;50.150;8.568;2023-08-17T05:35:43;2.20;;;1.80;;
14078;SDS011;7115;50.150;8.568;2023-08-17T05:38:10;4.30;;;1.80;;
14078;SDS011;7115;50.150;8.568;2023-08-17T05:40:38;5.57;;;1.90;;
14078;SDS011;7115;50.150;8.568;2023-08-17T05:43:05;3.07;;;2.00;;
14078;SDS011;7115;50.150;8.568;2023-08-17T05:45:32;6.60;;;2.10;;
14078;SDS011;7115;50.150;8.568;2023-08-17T05:48:03;3.63;;;2.30;;
14078;SDS011;7115;50.150;8.568;2023-08-17T05:50:30;6.57;;;2.70;;
14078;SDS011;7115;50.150;8.568;2023-08-17T05:52:57;8.53;;;3.13;;
14078;SDS011;7115;50.150;8.568;2023-08-17T05:55:24;3.13;;;2.87;;
14078;SDS011;7115;50.150;8.568;2023-08-17T05:57:52;3.40;;;2.53;;
14078;SDS011;7115;50.150;8.568;2023-08-17T06:00:19;4.30;;;2.93;;
14078;SDS011;7115;50.150;8.568;2023-08-17T06:02:46;7.30;;;3.60;;
14078;SDS011;7115;50.150;8.568;2023-08-17T06:05:16;5.03;;;3.33;;
14078;SDS011;7115;50.150;8.568;2023-08-17T06:07:43;6.13;;;3.47;;
14078;SDS011;7115;50.150;8.568;2023-08-17T06:10:10;6.77;;;3.70;;
14078;SDS011;7115;50.150;8.568;2023-08-17T06:12:38;6.60;;;4.47;;
14078;SDS011;7115;50.150;8.568;2023-08-17T06:15:07;5.30;;;4.03;;
14078;SDS011;7115;50.150;8.568;2023-08-17T06:17:34;5.93;;;4.77;;
14078;SDS011;7115;50.150;8.568;2023-08-17T06:20:02;16.27;;;5.33;;
14078;SDS011;7115;50.150;8.568;2023-08-17T06:22:29;9.33;;;4.50;;
14078;SDS011;7115;50.150;8.568;2023-08-17T06:24:56;15.30;;;3.87;;
14078;SDS011;7115;50.150;8.568;2023-08-17T06:27:23;32.70;;;5.20;;
14078;SDS011;7115;50.150;8.568;2023-08-17T06:29:50;7.27;;;3.63;;
14078;SDS011;7115;50.150;8.568;2023-08-17T06:32:18;8.07;;;3.37;;
14078;SDS011;7115;50.150;8.568;2023-08-17T06:34:45;8.07;;;3.63;;
14078;SDS011;7115;50.150;8.568;2023-08-17T06:37:12;4.73;;;3.90;;
14078;SDS011;7115;50.150;8.568;2023-08-17T06:39:39;5.90;;;4.03;;
14078;SDS011;7115;50.150;8.568;2023-08-17T06:42:06;7.70;;;4.17;;
14078;SDS011;7115;50.150;8.568;2023-08-17T06:44:32;6.03;;;4.53;;
14078;SDS011;7115;50.150;8.568;2023-08-17T06:46:59;6.67;;;5.43;;
14078;SDS011;7115;50.150;8.568;2023-08-17T06:49:28;5.43;;;4.40;;
14078;SDS011;7115;50.150;8.568;2023-08-17T06:51:54;6.23;;;5.20;;
14078;SDS011;7115;50.150;8.568;2023-08-17T06:54:21;6.27;;;4.70;;
14078;SDS011;7115;50.150;8.568;2023-08-17T06:56:48;5.57;;;4.70;;
14078;SDS011;7115;50.150;8.568;2023-08-17T06:59:15;4.80;;;4.30;;
14078;SDS011;7115;50.150;8.568;2023-08-17T07:01:43;4.93;;;4.43;;
14078;SDS011;7115;50.150;8.568;2023-08-17T07:04:09;5.37;;;4.03;;
14078;SDS011;7115;50.150;8.568;2023-08-17T07:06:38;6.60;;;5.13;;
14078;SDS011;7115;50.150;8.568;2023-08-17T07:09:05;4.83;;;4.30;;
14078;SDS011;7115;50.150;8.568;2023-08-17T07:11:32;6.40;;;4.20;;
14078;SDS011;7115;50.150;8.568;2023-08-17T07:13:58;5.87;;;4.93;;
14078;SDS011;7115;50.150;8.568;2023-08-17T07:16:25;5.63;;;4.70;;
14078;SDS011;7115;50.150;8.568;2023-08-17T07:18:52;5.20;;;4.43;;
14078;SDS011;7115;50.150;8.568;2023-08-17T07:21:19;5.60;;;4.40;;
14078;SDS011;7115;50.150;8.568;2023-08-17T07:23:47;5.63;;;4.90;;
14078;SDS011;7115;50.150;8.568;2023-08-17T07:26:15;6.83;;;4.73;;
14078;SDS011;7115;50.150;8.568;2023-08-17T07:28:45;7.87;;;5.13;;
14078;SDS011;7115;50.150;8.568;2023-08-17T07:31:11;4.73;;;4.07;;
14078;SDS011;7115;50.150;8.568;2023-08-17T07:33:39;10.83;;;8.63;;
14078;SDS011;7115;50.150;8.568;2023-08-17T07:36:06;7.67;;;6.87;;
14078;SDS011;7115;50.150;8.568;2023-08-17T07:38:32;6.10;;;5.50;;
14078;SDS011;7115;50.150;8.568;2023-08-17T07:41:01;5.53;;;4.40;;
14078;SDS011;7115;50.150;8.568;2023-08-17T07:43:29;6.10;;;4.70;;
14078;SDS011;7115;50.150;8.568;2023-08-17T07:45:56;4.27;;;3.80;;
14078;SDS011;7115;50.150;8.568;2023-08-17T07:48:23;6.47;;;4.00;;
14078;SDS011;7115;50.150;8.568;2023-08-17T07:50:50;3.07;;;2.77;;
14078;SDS011;7115;50.150;8.568;2023-08-17T07:53:18;6.27;;;2.83;;
14078;SDS011;7115;50.150;8.568;2023-08-17T07:55:45;6.70;;;5.20;;
14078;SDS011;7115;50.150;8.568;2023-08-17T07:58:14;3.33;;;3.03;;
14078;SDS011;7115;50.150;8.568;2023-08-17T08:00:41;4.17;;;3.07;;
14078;SDS011;7115;50.150;8.568;2023-08-17T08:03:09;2.90;;;2.40;;
14078;SDS011;7115;50.150;8.568;2023-08-17T08:05:36;2.40;;;2.20;;
14078;SDS011;7115;50.150;8.568;2023-08-17T08:08:03;2.50;;;2.17;;
14078;SDS011;7115;50.150;8.568;2023-08-17T08:10:31;3.20;;;2.03;;
14078;SDS011;7115;50.150;8.568;2023-08-17T08:12:58;3.53;;;2.80;;
14078;SDS011;7115;50.150;8.568;2023-08-17T08:15:26;3.67;;;2.90;;
14078;SDS011;7115;50.150;8.568;2023-08-17T08:17:53;2.27;;;1.97;;
14078;SDS011;7115;50.150;8.568;2023-08-17T08:20:20;4.17;;;2.40;;
14078;SDS011;7115;50.150;8.568;2023-08-17T08:22:47;3.30;;;2.20;;
14078;SDS011;7115;50.150;8.568;2023-08-17T08:25:14;5.17;;;4.30;;
14078;SDS011;7115;50.150;8.568;2023-08-17T08:27:41;3.23;;;2.43;;
14078;SDS011;7115;50.150;8.568;2023-08-17T08:30:08;4.33;;;1.90;;
14078;SDS011;7115;50.150;8.568;2023-08-17T08:32:37;5.10;;;2.57;;
14078;SDS011;7115;50.150;8.568;2023-08-17T08:35:04;2.17;;;1.97;;
14078;SDS011;7115;50.150;8.568;2023-08-17T08:37:32;1.90;;;1.70;;
14078;SDS011;7115;50.150;8.568;2023-08-17T08:39:58;2.73;;;2.10;;
14078;SDS011;7115;50.150;8.568;2023-08-17T08:42:27;2.13;;;1.93;;
14078;SDS011;7115;50.150;8.568;2023-08-17T08:44:54;5.70;;;2.37;;
14078;SDS011;7115;50.150;8.568;2023-08-17T08:47:22;2.47;;;1.73;;
14078;SDS011;7115;50.150;8.568;2023-08-17T08:49:55;2.20;;;1.97;;
14078;SDS011;7115;50.150;8.568;2023-08-17T08:52:30;2.07;;;1.23;;
14078;SDS011;7115;50.150;8.568;2023-08-17T08:55:01;5.73;;;2.43;;
14078;SDS011;7115;50.150;8.568;2023-08-17T08:57:35;2.30;;;1.47;;
14078;SDS011;7115;50.150;8.568;2023-08-17T09:00:03;3.10;;;2.07;;
14078;SDS011;7115;50.150;8.568;2023-08-17T09:02:30;2.07;;;1.87;;
14078;SDS011;7115;50.150;8.568;2023-08-17T09:04:59;1.70;;;1.33;;
14078;SDS011;7115;50.150;8.568;2023-08-17T09:07:27;1.60;;;1.43;;
14078;SDS011;7115;50.150;8.568;2023-08-17T09:09:56;12.07;;;8.90;;
14078;SDS011;7115;50.150;8.568;2023-08-17T09:12:23;2.63;;;1.80;;
14078;SDS011;7115;50.150;8.568;2023-08-17T09:15:06;2.10;;;1.40;;
14078;SDS011;7115;50.150;8.568;2023-08-17T09:17:33;3.33;;;2.27;;
14078;SDS011;7115;50.150;8.568;2023-08-17T09:20:02;4.50;;;1.50;;
14078;SDS011;7115;50.150;8.568;2023-08-17T09:22:36;1.20;;;0.90;;
14078;SDS011;7115;50.150;8.568;2023-08-17T09:25:05;3.67;;;1.20;;
14078;SDS011;7115;50.150;8.568;2023-08-17T09:27:33;1.80;;;1.23;;
14078;SDS011;7115;50.150;8.568;2023-08-17T09:30:03;2.03;;;1.20;;
14078;SDS011;7115;50.150;8.568;2023-08-17T09:32:33;3.33;;;1.20;;
14078;SDS011;7115;50.150;8.568;2023-08-17T09:35:02;2.50;;;1.37;;
14078;SDS011;7115;50.150;8.568;2023-08-17T09:37:30;4.43;;;1.30;;
14078;SDS011;7115;50.150;8.568;2023-08-17T09:39:58;2.80;;;1.70;;
14078;SDS011;7115;50.150;8.568;2023-08-17T09:42:25;2.63;;;1.40;;
14078;SDS011;7115;50.150;8.568;2023-08-17T09:44:53;2.93;;;1.37;;
14078;SDS011;7115;50.150;8.568;2023-08-17T09:47:22;1.30;;;1.20;;
14078;SDS011;7115;50.150;8.568;2023-08-17T09:49:49;1.33;;;1.20;;
14078;SDS011;7115;50.150;8.568;2023-08-17T09:52:19;5.03;;;1.60;;
14078;SDS011;7115;50.150;8.568;2023-08-17T09:54:47;1.23;;;0.90;;
14078;SDS011;7115;50.150;8.568;2023-08-17T09:57:14;1.30;;;1.20;;
14078;SDS011;7115;50.150;8.568;2023-08-17T09:59:41;1.70;;;1.00;;
14078;SDS011;7115;50.150;8.568;2023-08-17T10:02:10;3.67;;;1.30;;
14078;SDS011;7115;50.150;8.568;2023-08-17T10:04:44;1.37;;;1.20;;
14078;SDS011;7115;50.150;8.568;2023-08-17T10:07:16;2.67;;;1.23;;
14078;SDS011;7115;50.150;8.568;2023-08-17T10:09:47;1.57;;;1.43;;
14078;SDS011;7115;50.150;8.568;2023-08-17T10:12:20;2.47;;;1.40;;
14078;SDS011;7115;50.150;8.568;2023-08-17T10:14:54;2.83;;;1.40;;
14078;SDS011;7115;50.150;8.568;2023-08-17T10:17:26;2.40;;;1.40;;
14078;SDS011;7115;50.150;8.568;2023-08-17T10:19:55;4.20;;;1.67;;
14078;SDS011;7115;50.150;8.568;2023-08-17T10:22:26;5.03;;;1.67;;
14078;SDS011;7115;50.150;8.568;2023-08-17T10:24:58;4.60;;;1.40;;
14078;SDS011;7115;50.150;8.568;2023-08-17T10:27:27;2.03;;;1.40;;
14078;SDS011;7115;50.150;8.568;2023-08-17T10:29:55;4.50;;;1.40;;
14078;SDS011;7115;50.150;8.568;2023-08-17T10:32:22;1.57;;;1.10;;
14078;SDS011;7115;50.150;8.568;2023-08-17T10:34:51;1.30;;;1.20;;
14078;SDS011;7115;50.150;8.568;2023-08-17T10:37:19;3.13;;;1.30;;
14078;SDS011;7115;50.150;8.568;2023-08-17T10:39:47;2.03;;;1.40;;
14078;SDS011;7115;50.150;8.568;2023-08-17T10:42:16;3.07;;;2.20;;
14078;SDS011;7115;50.150;8.568;2023-08-17T10:44:58;2.33;;;1.50;;
14078;SDS011;7115;50.150;8.568;2023-08-17T10:47:28;1.67;;;1.40;;
14078;SDS011;7115;50.150;8.568;2023-08-17T10:50:02;1.63;;;1.30;;
14078;SDS011;7115;50.150;8.568;2023-08-17T10:52:31;2.50;;;1.53;;
14078;SDS011;7115;50.150;8.568;2023-08-17T10:54:59;2.43;;;1.40;;
14078;SDS011;7115;50.150;8.568;2023-08-17T10:57:29;1.97;;;1.53;;
14078;SDS011;7115;50.150;8.568;2023-08-17T11:02:51;4.73;;;1.20;;
14078;SDS011;7115;50.150;8.568;2023-08-17T11:05:36;2.60;;;1.50;;
14078;SDS011;7115;50.150;8.568;2023-08-17T11:08:05;2.37;;;1.17;;
14078;SDS011;7115;50.150;8.568;2023-08-17T11:10:32;1.37;;;1.20;;
14078;SDS011;7115;50.150;8.568;2023-08-17T11:13:01;1.37;;;1.20;;
14078;SDS011;7115;50.150;8.568;2023-08-17T11:15:37;2.90;;;1.10;;
14078;SDS011;7115;50.150;8.568;2023-08-17T11:18:08;1.20;;;1.10;;
14078;SDS011;7115;50.150;8.568;2023-08-17T11:20:36;1.20;;;0.93;;
14078;SDS011;7115;50.150;8.568;2023-08-17T11:23:04;2.23;;;1.00;;
14078;SDS011;7115;50.150;8.568;2023-08-17T11:25:32;1.27;;;1.17;;
14078;SDS011;7115;50.150;8.568;2023-08-17T11:28:01;3.67;;;1.37;;
14078;SDS011;7115;50.150;8.568;2023-08-17T11:30:29;1.00;;;0.90;;
14078;SDS011;7115;50.150;8.568;2023-08-17T11:32:56;2.07;;;1.17;;
14078;SDS011;7115;50.150;8.568;2023-08-17T11:35:24;1.30;;;1.00;;
14078;SDS011;7115;50.150;8.568;2023-08-17T11:37:51;1.60;;;1.30;;
14078;SDS011;7115;50.150;8.568;2023-08-17T11:40:18;1.73;;;1.00;;
14078;SDS011;7115;50.150;8.568;2023-08-17T11:42:45;1.23;;;0.90;;
14078;SDS011;7115;50.150;8.568;2023-08-17T11:45:14;2.37;;;1.00;;
14078;SDS011;7115;50.150;8.568;2023-08-17T11:47:41;1.17;;;1.07;;
14078;SDS011;7115;50.150;8.568;2023-08-17T11:50:10;1.50;;;1.10;;
14078;SDS011;7115;50.150;8.568;2023-08-17T11:52:46;2.57;;;1.17;;
14078;SDS011;7115;50.150;8.568;2023-08-17T11:55:15;2.50;;;1.20;;
14078;SDS011;7115;50.150;8.568;2023-08-17T11:57:47;1.20;;;0.90;;
14078;SDS011;7115;50.150;8.568;2023-08-17T12:00:19;1.03;;;0.80;;
14078;SDS011;7115;50.150;8.568;2023-08-17T12:02:48;1.40;;;1.00;;
14078;SDS011;7115;50.150;8.568;2023-08-17T12:05:19;2.37;;;0.90;;
14078;SDS011;7115;50.150;8.568;2023-08-17T12:07:47;1.80;;;0.87;;
14078;SDS011;7115;50.150;8.568;2023-08-17T12:10:14;1.03;;;0.93;;
14078;SDS011;7115;50.150;8.568;2023-08-17T12:12:41;1.77;;;1.00;;
14078;SDS011;7115;50.150;8.568;2023-08-17T12:15:09;0.70;;;0.70;;
14078;SDS011;7115;50.150;8.568;2023-08-17T12:17:43;1.73;;;0.90;;
14078;SDS011;7115;50.150;8.568;2023-08-17T12:20:15;4.63;;;1.00;;
14078;SDS011;7115;50.150;8.568;2023-08-17T12:22:42;3.20;;;2.63;;
14078;SDS011;7115;50.150;8.568;2023-08-17T12:25:10;1.43;;;1.00;;
14078;SDS011;7115;50.150;8.568;2023-08-17T12:27:37;1.23;;;0.90;;
14078;SDS011;7115;50.150;8.568;2023-08-17T12:30:04;3.03;;;0.90;;
14078;SDS011;7115;50.150;8.568;2023-08-17T12:32:37;9.20;;;1.43;;
14078;SDS011;7115;50.150;8.568;2023-08-17T12:35:06;5.43;;;1.10;;
14078;SDS011;7115;50.150;8.568;2023-08-17T12:37:34;2.33;;;0.93;;
14078;SDS011;7115;50.150;8.568;2023-08-17T12:40:01;4.77;;;1.03;;
14078;SDS011;7115;50.150;8.568;2023-08-17T12:42:28;1.90;;;0.90;;
14078;SDS011;7115;50.150;8.568;2023-08-17T12:44:56;2.73;;;1.10;;
14078;SDS011;7115;50.150;8.568;2023-08-17T12:47:23;5.53;;;1.77;;
14078;SDS011;7115;50.150;8.568;2023-08-17T12:49:50;2.93;;;1.10;;
14078;SDS011;7115;50.150;8.568;2023-08-17T12:52:18;1.23;;;0.97;;
14078;SDS011;7115;50.150;8.568;2023-08-17T12:54:45;1.40;;;1.07;;
14078;SDS011;7115;50.150;8.568;2023-08-17T12:57:18;1.07;;;0.97;;
14078;SDS011;7115;50.150;8.568;2023-08-17T12:59:45;1.40;;;1.10;;
14078;SDS011;7115;50.150;8.568;2023-08-17T13:02:12;1.80;;;1.10;;
14078;SDS011;7115;50.150;8.568;2023-08-17T13:04:39;1.20;;;1.00;;
14078;SDS011;7115;50.150;8.568;2023-08-17T13:07:06;1.67;;;0.90;;
14078;SDS011;7115;50.150;8.568;2023-08-17T13:09:34;3.10;;;1.30;;
14078;SDS011;7115;50.150;8.568;2023-08-17T13:12:01;1.17;;;0.90;;
14078;SDS011;7115;50.150;8.568;2023-08-17T13:14:28;1.87;;;1.10;;
14078;SDS011;7115;50.150;8.568;2023-08-17T13:16:55;1.10;;;0.80;;
14078;SDS011;7115;50.150;8.568;2023-08-17T13:19:22;1.40;;;1.00;;
14078;SDS011;7115;50.150;8.568;2023-08-17T13:21:49;1.00;;;0.80;;
14078;SDS011;7115;50.150;8.568;2023-08-17T13:24:16;1.20;;;1.03;;
14078;SDS011;7115;50.150;8.568;2023-08-17T13:26:44;0.50;;;0.50;;
14078;SDS011;7115;50.150;8.568;2023-08-17T13:29:11;3.17;;;0.90;;
14078;SDS011;7115;50.150;8.568;2023-08-17T13:31:38;3.37;;;1.23;;
14078;SDS011;7115;50.150;8.568;2023-08-17T13:34:05;2.07;;;0.90;;
14078;SDS011;7115;50.150;8.568;2023-08-17T13:36:32;16.07;;;5.80;;
14078;SDS011;7115;50.150;8.568;2023-08-17T13:38:59;4.17;;;1.90;;
14078;SDS011;7115;50.150;8.568;2023-08-17T13:41:26;20.67;;;5.30;;
14078;SDS011;7115;50.150;8.568;2023-08-17T13:43:54;6.20;;;1.77;;
14078;SDS011;7115;50.150;8.568;2023-08-17T13:46:26;11.50;;;2.60;;
14078;SDS011;7115;50.150;8.568;2023-08-17T13:48:53;6.90;;;1.37;;
14078;SDS011;7115;50.150;8.568;2023-08-17T13:51:20;3.70;;;1.60;;
14078;SDS011;7115;50.150;8.568;2023-08-17T13:53:47;1.83;;;1.20;;
14078;SDS011;7115;50.150;8.568;2023-08-17T13:56:14;1.83;;;1.30;;
14078;SDS011;7115;50.150;8.568;2023-08-17T13:58:42;1.50;;;1.20;;
14078;SDS011;7115;50.150;8.568;2023-08-17T14:01:10;1.77;;;1.07;;
14078;SDS011;7115;50.150;8.568;2023-08-17T14:03:38;2.70;;;1.10;;
14078;SDS011;7115;50.150;8.568;2023-08-17T14:06:05;1.67;;;1.30;;
14078;SDS011;7115;50.150;8.568;2023-08-17T14:08:32;1.77;;;0.90;;
14078;SDS011;7115;50.150;8.568;2023-08-17T14:10:59;4.43;;;2.93;;
14078;SDS011;7115;50.150;8.568;2023-08-17T14:13:26;1.67;;;1.20;;
14078;SDS011;7115;50.150;8.568;2023-08-17T14:15:53;2.27;;;0.90;;
14078;SDS011;7115;50.150;8.568;2023-08-17T14:18:23;3.70;;;0.93;;
14078;SDS011;7115;50.150;8.568;2023-08-17T14:20:51;3.27;;;1.00;;
14078;SDS011;7115;50.150;8.568;2023-08-17T14:23:18;1.60;;;1.20;;
14078;SDS011;7115;50.150;8.568;2023-08-17T14:25:45;1.63;;;1.10;;
14078;SDS011;7115;50.150;8.568;2023-08-17T14:28:12;1.40;;;0.90;;
14078;SDS011;7115;50.150;8.568;2023-08-17T14:30:39;0.80;;;0.80;;
14078;SDS011;7115;50.150;8.568;2023-08-17T14:33:06;2.67;;;1.27;;
14078;SDS011;7115;50.150;8.568;2023-08-17T14:35:34;2.00;;;0.90;;
14078;SDS011;7115;50.150;8.568;2023-08-17T14:38:01;3.87;;;1.87;;
14078;SDS011;7115;50.150;8.568;2023-08-17T14:40:28;4.80;;;1.10;;
14078;SDS011;7115;50.150;8.568;2023-08-17T14:42:55;1.10;;;1.00;;
14078;SDS011;7115;50.150;8.568;2023-08-17T14:45:22;1.33;;;1.13;;
14078;SDS011;7115;50.150;8.568;2023-08-17T14:47:49;1.20;;;0.90;;
14078;SDS011;7115;50.150;8.568;2023-08-17T14:50:16;1.30;;;0.90;;
14078;SDS011;7115;50.150;8.568;2023-08-17T14:52:45;4.47;;;2.20;;
14078;SDS011;7115;50.150;8.568;2023-08-17T14:55:12;3.47;;;1.60;;
14078;SDS011;7115;50.150;8.568;2023-08-17T14:57:39;2.60;;;1.70;;
14078;SDS011;7115;50.150;8.568;2023-08-17T15:00:07;3.83;;;2.63;;
14078;SDS011;7115;50.150;8.568;2023-08-17T15:02:41;6.57;;;3.97;;
14078;SDS011;7115;50.150;8.568;2023-08-17T15:05:08;3.40;;;1.67;;
14078;SDS011;7115;50.150;8.568;2023-08-17T15:07:35;3.13;;;1.90;;